createdAt,value
2019-04-06T00:04:33.926Z,64.23
2019-04-06T00:09:38.447Z,64.83
2019-04-06T00:14:42.881Z,65.31
2019-04-06T00:19:51.205Z,65.93
2019-04-06T00:24:55.632Z,66.41
2019-04-06T00:30:00.935Z,66.86
2019-04-06T00:35:06.599Z,67.22
2019-04-06T00:40:12.470Z,67.67
2019-04-06T00:45:16.999Z,67.98
2019-04-06T00:50:21.493Z,68.76
2019-04-06T00:55:25.931Z,69.01
2019-04-06T01:00:30.461Z,69.45
2019-04-06T01:05:34.994Z,70.01
2019-04-06T01:10:39.436Z,70.63
2019-04-06T01:15:43.867Z,71.34
2019-04-06T01:20:48.295Z,71.62
2019-04-06T01:25:52.812Z,71.75
2019-04-06T01:30:57.281Z,71.95
2019-04-06T01:36:03.835Z,72.28
2019-04-06T01:41:08.282Z,72.44
2019-04-06T01:46:12.729Z,72.48
2019-04-06T01:51:17.183Z,72.57
2019-04-06T01:56:21.614Z,72.51
2019-04-06T02:01:27.709Z,72.82
2019-04-06T02:06:33.106Z,72.97
2019-04-06T02:11:37.644Z,73.24
2019-04-06T02:16:42.183Z,73.27
2019-04-06T02:21:46.692Z,73.36
2019-04-06T02:26:51.122Z,73.55
2019-04-06T02:31:57.393Z,73.95
2019-04-06T02:37:18.720Z,73.94
2019-04-06T02:42:27.954Z,74.54
2019-04-06T02:47:32.380Z,75.26
2019-04-06T02:52:36.799Z,75.62
2019-04-06T02:57:41.275Z,75.89
2019-04-06T03:02:45.726Z,75.98
2019-04-06T03:07:50.327Z,76.16
2019-04-06T03:12:54.737Z,76.22
2019-04-06T03:17:59.289Z,76.37
2019-04-06T03:23:03.957Z,76.24
2019-04-06T03:28:08.435Z,76.36
2019-04-06T03:33:12.867Z,76.55
2019-04-06T03:38:17.404Z,76.77
2019-04-06T03:43:21.999Z,76.86
2019-04-06T03:48:26.710Z,77.13
2019-04-06T03:53:32.315Z,77.19
2019-04-06T03:58:36.827Z,77.32
2019-04-06T04:03:41.219Z,77.49
2019-04-06T04:08:45.639Z,77.77
2019-04-06T04:13:50.136Z,77.99
2019-04-06T04:18:54.852Z,78.04
2019-04-06T04:23:59.351Z,78.33
2019-04-06T04:29:03.888Z,78.25
2019-04-06T04:34:08.327Z,78.16
2019-04-06T04:39:13.809Z,78.18
2019-04-06T04:44:18.240Z,78.09
2019-04-06T04:49:22.776Z,77.82
2019-04-06T04:54:27.204Z,77.60
2019-04-06T04:59:31.639Z,77.02
2019-04-06T05:04:36.106Z,76.25
2019-04-06T05:09:40.548Z,75.85
2019-04-06T05:15:12.132Z,75.18
2019-04-06T05:20:16.661Z,76.33
2019-04-06T05:25:21.078Z,75.16
2019-04-06T05:30:25.514Z,74.94
2019-04-06T05:35:31.516Z,73.82
2019-04-06T05:40:36.093Z,72.47
2019-04-06T05:45:41.303Z,71.48
2019-04-06T05:50:45.912Z,71.13
2019-04-06T05:55:50.336Z,70.02
2019-04-06T06:00:55.137Z,69.19
2019-04-06T06:05:59.618Z,68.74
2019-04-06T06:11:04.307Z,68.13
2019-04-06T06:16:08.827Z,66.47
2019-04-06T06:21:13.384Z,65.88
2019-04-06T06:26:17.976Z,65.41
2019-04-06T06:31:22.570Z,65.44
2019-04-06T06:36:27.084Z,65.58
2019-04-06T06:41:31.529Z,64.80
2019-04-06T06:46:35.962Z,65.81
2019-04-06T06:51:40.514Z,65.50
2019-04-06T06:56:45.025Z,65.45
2019-04-06T07:01:49.472Z,65.82
2019-04-06T07:06:53.924Z,64.38
2019-04-06T07:11:58.386Z,63.86
2019-04-06T07:17:03.859Z,63.02
2019-04-06T07:22:08.318Z,62.13
2019-04-06T07:27:12.782Z,62.57
2019-04-06T07:32:17.254Z,62.41
2019-04-06T07:37:22.806Z,60.87
2019-04-06T07:42:28.450Z,60.43
2019-04-06T07:47:32.905Z,60.05
2019-04-06T07:52:37.791Z,59.33
2019-04-06T07:57:42.288Z,58.96
2019-04-06T08:02:47.074Z,58.19
2019-04-06T08:07:52.564Z,59.11
2019-04-06T08:12:57.238Z,58.18
2019-04-06T08:18:01.706Z,55.97
2019-04-06T08:23:07.259Z,57.70
2019-04-06T08:28:11.894Z,56.95
2019-04-06T08:33:16.366Z,56.40
2019-04-06T08:38:20.888Z,55.71
2019-04-06T08:43:25.477Z,55.29
2019-04-06T08:48:29.916Z,55.28
2019-04-06T08:53:34.389Z,54.95
2019-04-06T08:58:38.981Z,54.38
2019-04-06T09:03:43.752Z,54.02
2019-04-06T09:08:48.381Z,53.02
2019-04-06T09:13:52.997Z,54.04
2019-04-06T09:18:57.486Z,53.13
2019-04-06T09:24:01.969Z,52.27
2019-04-06T09:29:06.409Z,52.11
2019-04-06T09:34:10.865Z,51.88
2019-04-06T09:39:15.515Z,51.64
2019-04-06T09:44:21.732Z,51.76
2019-04-06T09:49:45.786Z,49.89
2019-04-06T09:54:58.145Z,50.70
2019-04-06T10:00:04.252Z,50.18
2019-04-06T10:05:18.196Z,49.96
2019-04-06T10:10:31.208Z,49.16
2019-04-06T10:15:40.404Z,48.71
2019-04-06T10:21:02.990Z,48.62
2019-04-06T10:26:14.960Z,47.95
2019-04-06T10:31:26.969Z,48.73
2019-04-06T10:36:42.467Z,47.32
2019-04-06T10:41:48.760Z,45.71
2019-04-06T10:46:54.877Z,45.77
2019-04-06T10:52:16.949Z,45.98
2019-04-06T10:57:33.268Z,44.66
2019-04-06T11:02:48.333Z,43.79
2019-04-06T11:07:54.366Z,42.35
2019-04-06T11:13:06.614Z,40.62
2019-04-06T11:18:18.669Z,39.25
2019-04-06T11:23:39.848Z,38.35
2019-04-06T11:28:48.803Z,37.25
2019-04-06T11:34:00.953Z,35.14
2019-04-06T11:39:21.186Z,33.29
2019-04-06T11:44:42.659Z,31.53
2019-04-06T11:49:48.911Z,30.75
2019-04-06T11:54:55.042Z,30.60
2019-04-06T12:00:07.215Z,29.33
2019-04-06T12:05:31.623Z,28.60
2019-04-06T12:15:13.299Z,29.40
2019-04-06T12:20:22.005Z,29.55
2019-04-06T12:25:28.086Z,31.04
2019-04-06T12:30:42.866Z,29.80
2019-04-06T12:35:58.272Z,30.13
2019-04-06T12:41:19.972Z,29.47
2019-04-06T12:46:26.103Z,28.69
2019-04-06T12:51:32.178Z,29.21
2019-04-06T12:56:44.437Z,31.77
2019-04-06T13:01:53.170Z,32.80
2019-04-06T13:07:15.470Z,32.22
2019-04-06T13:12:39.009Z,33.40
2019-04-06T13:18:01.662Z,31.97
2019-04-06T13:23:17.121Z,33.10
2019-04-06T13:28:35.474Z,31.76
2019-04-06T13:33:51.081Z,31.57
2019-04-06T13:39:03.619Z,30.29
2019-04-06T13:44:13.848Z,30.89
2019-04-06T13:49:19.945Z,30.96
2019-04-06T13:54:34.868Z,31.10
2019-04-06T13:59:40.981Z,31.50
2019-04-06T14:04:47.062Z,33.56
2019-04-06T14:09:58.870Z,35.89
2019-04-06T14:15:10.965Z,36.01
2019-04-06T14:20:36.039Z,37.54
2019-04-06T14:25:58.394Z,37.24
2019-04-06T14:31:10.225Z,36.65
2019-04-06T14:36:16.497Z,38.85
2019-04-06T14:41:38.879Z,39.00
2019-04-06T14:46:57.323Z,37.94
2019-04-06T14:52:03.621Z,34.70
2019-04-06T14:57:18.645Z,33.90
2019-04-06T15:02:32.740Z,33.59
2019-04-06T15:07:44.865Z,33.30
2019-04-06T15:12:56.795Z,32.66
2019-04-06T15:18:03.226Z,34.94
2019-04-06T15:23:09.299Z,36.09
2019-04-06T15:28:24.364Z,37.11
2019-04-06T15:33:47.066Z,37.75
2019-04-06T15:39:11.268Z,39.58
2019-04-06T15:44:20.082Z,41.10
2019-04-06T15:49:30.286Z,43.24
2019-04-06T15:54:52.568Z,44.75
2019-04-06T15:59:58.641Z,45.60
2019-04-06T16:05:10.345Z,45.30
2019-04-06T16:10:32.603Z,45.74
2019-04-06T16:15:41.442Z,46.61
2019-04-06T16:20:50.816Z,45.10
2019-04-06T16:26:12.173Z,43.25
2019-04-06T16:31:18.361Z,43.56
2019-04-06T16:36:39.614Z,44.32
2019-04-06T16:41:49.185Z,45.67
2019-04-06T16:47:04.415Z,46.73
2019-04-06T16:52:10.518Z,48.46
2019-04-06T16:57:16.674Z,50.18
2019-04-06T17:02:39.695Z,51.36
2019-04-06T17:07:46.855Z,52.81
2019-04-06T17:13:09.652Z,54.38
2019-04-06T17:18:21.342Z,55.16
2019-04-06T17:23:30.626Z,56.07
2019-04-06T17:28:54.624Z,57.35
2019-04-06T17:34:06.302Z,57.66
2019-04-06T17:39:30.434Z,59.11
2019-04-06T17:44:54.408Z,60.83
2019-04-06T17:50:04.515Z,63.29
2019-04-06T17:55:26.148Z,64.58
2019-04-06T18:00:35.871Z,65.03
2019-04-06T18:05:48.106Z,65.79
2019-04-06T18:11:00.431Z,66.29
2019-04-06T18:16:05.488Z,66.84
2019-04-06T18:21:10.041Z,67.50
2019-04-06T18:26:14.550Z,68.12
2019-04-06T18:31:23.464Z,68.72
2019-04-06T18:36:32.680Z,69.30
2019-04-06T18:41:37.308Z,69.64
2019-04-06T18:46:42.009Z,70.36
2019-04-06T18:51:46.755Z,70.98
2019-04-06T18:56:51.394Z,71.27
2019-04-06T19:01:56.286Z,71.68
2019-04-06T19:07:01.343Z,72.06
2019-04-06T19:12:05.796Z,72.46
2019-04-06T19:17:10.216Z,72.45
2019-04-06T19:22:14.655Z,72.16
2019-04-06T19:27:20.589Z,71.64
2019-04-06T19:32:25.113Z,72.53
2019-04-06T19:37:29.641Z,72.67
2019-04-06T19:42:34.230Z,73.14
2019-04-06T19:47:38.653Z,73.53
2019-04-06T19:52:44.130Z,74.87
2019-04-06T19:57:49.590Z,76.01
2019-04-06T20:02:55.185Z,76.85
2019-04-06T20:07:59.715Z,77.40
2019-04-06T20:13:04.325Z,78.43
2019-04-06T20:18:09.206Z,80.46
2019-04-06T20:23:14.012Z,82.01
2019-04-06T20:28:18.791Z,81.83
2019-04-06T20:33:23.342Z,81.71
2019-04-06T20:38:27.784Z,81.71
2019-04-06T20:43:32.232Z,81.70
2019-04-06T20:48:36.838Z,81.43
2019-04-06T20:53:42.105Z,81.54
2019-04-06T20:58:46.611Z,81.84
2019-04-06T21:03:59.699Z,82.70
2019-04-06T21:08:57.566Z,83.81
2019-04-06T21:14:02.200Z,83.98
2019-04-06T21:19:06.656Z,83.73
2019-04-06T21:24:11.535Z,84.16
2019-04-06T21:29:15.992Z,85.61
2019-04-06T21:34:20.552Z,85.68
2019-04-06T21:39:25.021Z,88.14
2019-04-06T21:44:31.038Z,89.28
2019-04-06T21:49:35.726Z,91.15
2019-04-06T21:54:40.235Z,91.46
2019-04-06T21:59:44.927Z,92.53
2019-04-06T22:04:49.737Z,93.63
2019-04-06T22:09:54.863Z,93.47
2019-04-06T22:14:59.875Z,92.12
2019-04-06T22:20:06.268Z,92.93
2019-04-06T22:25:11.183Z,91.76
2019-04-06T22:30:18.708Z,92.15
2019-04-06T22:35:23.153Z,92.52
2019-04-06T22:40:27.749Z,92.02
2019-04-06T22:45:34.709Z,91.84
2019-04-06T22:50:39.324Z,91.93
2019-04-06T22:55:43.743Z,92.95
2019-04-06T23:00:50.408Z,93.09
2019-04-06T23:05:57.250Z,93.79
2019-04-06T23:11:02.547Z,94.01
2019-04-06T23:16:07.004Z,93.69
2019-04-06T23:21:11.432Z,93.69
2019-04-06T23:26:15.980Z,93.36
2019-04-06T23:31:21.058Z,94.08
2019-04-06T23:36:26.070Z,94.40
2019-04-06T23:41:32.626Z,95.22
2019-04-06T23:46:37.118Z,94.78
2019-04-06T23:51:42.707Z,91.69
2019-04-06T23:56:47.575Z,89.58
